createdAt,value
2023-08-11T00:01:09.115Z,100594.25
2023-08-11T00:03:37.262Z,100596.34
2023-08-11T00:06:08.539Z,100598.02
2023-08-11T00:08:39.369Z,100597.98
2023-08-11T00:11:07.866Z,100595.75
2023-08-11T00:13:36.686Z,100593.75
2023-08-11T00:16:06.105Z,100591.12
2023-08-11T00:18:34.218Z,100590.80
2023-08-11T00:21:03.587Z,100592.92
2023-08-11T00:23:31.502Z,100590.30
2023-08-11T00:26:00.091Z,100590.95
2023-08-11T00:28:28.336Z,100588.96
2023-08-11T00:30:56.568Z,100587.59
2023-08-11T00:33:24.953Z,100590.50
2023-08-11T00:35:53.079Z,100590.06
2023-08-11T00:38:24.955Z,100589.66
2023-08-11T00:40:53.222Z,100586.69
2023-08-11T00:43:21.231Z,100593.17
2023-08-11T00:45:50.514Z,100592.89
2023-08-11T00:48:18.623Z,100596.43
2023-08-11T00:50:47.140Z,100601.16
2023-08-11T00:53:15.406Z,100595.92
2023-08-11T00:55:44.437Z,100592.75
2023-08-11T00:58:13.173Z,100600.23
2023-08-11T01:00:41.072Z,100600.92
2023-08-11T01:03:09.830Z,100603.80
2023-08-11T01:05:46.761Z,100603.59
2023-08-11T01:08:36.190Z,100603.11
2023-08-11T01:11:13.606Z,100601.77
2023-08-11T01:13:45.885Z,100604.33
2023-08-11T01:16:14.715Z,100609.05
2023-08-11T01:18:45.295Z,100613.65
2023-08-11T01:21:17.367Z,100610.80
2023-08-11T01:23:45.786Z,100607.45
2023-08-11T01:26:14.642Z,100608.82
2023-08-11T01:28:43.293Z,100605.27
2023-08-11T01:31:12.255Z,100603.77
2023-08-11T01:33:40.217Z,100609.00
2023-08-11T01:36:09.661Z,100610.27
2023-08-11T01:38:37.700Z,100611.74
2023-08-11T01:41:07.704Z,100606.80
2023-08-11T01:43:37.778Z,100598.58
2023-08-11T01:46:05.822Z,100603.32
2023-08-11T01:48:34.955Z,100604.52
2023-08-11T01:51:03.477Z,100607.22
2023-08-11T01:53:31.523Z,100604.70
2023-08-11T01:55:59.776Z,100600.84
2023-08-11T01:58:27.881Z,100596.52
2023-08-11T02:00:55.760Z,100600.20
2023-08-11T02:03:23.855Z,100602.27
2023-08-11T02:05:51.919Z,100600.30
2023-08-11T02:08:20.791Z,100591.83
2023-08-11T02:10:49.064Z,100589.39
2023-08-11T02:13:17.006Z,100588.83
2023-08-11T02:15:45.190Z,100595.33
2023-08-11T02:18:13.110Z,100604.89
2023-08-11T02:20:42.569Z,100594.84
2023-08-11T02:23:10.350Z,100588.14
2023-08-11T02:25:38.306Z,100595.75
2023-08-11T02:28:06.459Z,100603.91
2023-08-11T02:30:34.445Z,100602.64
2023-08-11T02:33:02.476Z,100595.93
2023-08-11T02:35:30.422Z,100596.80
2023-08-11T02:37:58.573Z,100597.94
2023-08-11T02:40:27.464Z,100595.06
2023-08-11T02:43:00.168Z,100593.58
2023-08-11T02:45:28.241Z,100596.85
2023-08-11T02:47:57.505Z,100597.48
2023-08-11T02:50:25.750Z,100596.73
2023-08-11T02:52:53.824Z,100595.11
2023-08-11T02:55:21.924Z,100595.64
2023-08-11T02:57:49.814Z,100596.91
2023-08-11T03:00:18.930Z,100593.04
2023-08-11T03:02:47.329Z,100595.25
2023-08-11T03:05:17.383Z,100598.66
2023-08-11T03:07:46.441Z,100600.58
2023-08-11T03:10:14.558Z,100603.22
2023-08-11T03:12:43.805Z,100609.08
2023-08-11T03:15:12.067Z,100609.91
2023-08-11T03:17:40.206Z,100607.84
2023-08-11T03:20:14.472Z,100605.85
2023-08-11T03:22:45.997Z,100604.20
2023-08-11T03:25:16.393Z,100607.09
2023-08-11T03:27:44.974Z,100606.31
2023-08-11T03:30:23.318Z,100613.48
2023-08-11T03:32:53.483Z,100615.73
2023-08-11T03:35:23.052Z,100614.32
2023-08-11T03:37:53.269Z,100619.38
2023-08-11T03:40:21.173Z,100616.39
2023-08-11T03:42:53.948Z,100615.27
2023-08-11T03:45:22.467Z,100618.88
2023-08-11T03:47:51.185Z,100619.79
2023-08-11T03:50:22.083Z,100620.45
2023-08-11T03:52:50.280Z,100620.23
2023-08-11T03:55:18.519Z,100617.27
2023-08-11T03:57:47.306Z,100615.13
2023-08-11T04:00:20.604Z,100617.89
2023-08-11T04:02:52.479Z,100621.59
2023-08-11T04:05:20.700Z,100625.48
2023-08-11T04:07:48.565Z,100627.85
2023-08-11T04:10:17.382Z,100627.66
2023-08-11T04:12:45.318Z,100625.86
2023-08-11T04:15:13.392Z,100628.27
2023-08-11T04:17:41.965Z,100629.92
2023-08-11T04:20:14.855Z,100633.77
2023-08-11T04:22:43.710Z,100636.13
2023-08-11T04:25:13.251Z,100636.37
2023-08-11T04:27:44.019Z,100635.06
2023-08-11T04:30:13.823Z,100635.02
2023-08-11T04:32:44.891Z,100637.23
2023-08-11T04:35:13.553Z,100639.25
2023-08-11T04:37:42.954Z,100646.71
2023-08-11T04:40:15.045Z,100647.48
2023-08-11T04:42:45.558Z,100647.13
2023-08-11T04:45:16.330Z,100647.79
2023-08-11T04:47:46.333Z,100652.20
2023-08-11T04:50:18.129Z,100650.33
2023-08-11T04:52:47.478Z,100650.50
2023-08-11T04:55:15.959Z,100652.29
2023-08-11T04:57:44.938Z,100651.67
2023-08-11T05:00:18.503Z,100654.83
2023-08-11T05:02:47.227Z,100653.26
2023-08-11T05:05:15.446Z,100654.91
2023-08-11T05:07:43.498Z,100654.80
2023-08-11T05:10:11.701Z,100658.65
2023-08-11T05:12:40.084Z,100656.36
2023-08-11T05:15:08.261Z,100654.33
2023-08-11T05:17:36.221Z,100651.00
2023-08-11T05:20:09.380Z,100655.35
2023-08-11T05:22:37.640Z,100653.19
2023-08-11T05:25:07.052Z,100650.45
2023-08-11T05:27:34.983Z,100646.35
2023-08-11T05:30:03.420Z,100649.33
2023-08-11T05:32:31.580Z,100648.48
2023-08-11T05:35:00.399Z,100646.84
2023-08-11T05:37:28.441Z,100642.16
2023-08-11T05:39:57.370Z,100644.63
2023-08-11T05:42:25.592Z,100643.28
2023-08-11T05:44:53.541Z,100645.33
2023-08-11T05:47:21.336Z,100645.63
2023-08-11T05:49:49.506Z,100650.23
2023-08-11T05:52:17.488Z,100656.33
2023-08-11T05:54:45.332Z,100656.46
2023-08-11T05:57:13.325Z,100657.80
2023-08-11T05:59:41.314Z,100656.77
2023-08-11T06:02:09.231Z,100658.91
2023-08-11T06:04:37.572Z,100656.58
2023-08-11T06:07:05.538Z,100656.83
2023-08-11T06:09:33.998Z,100658.05
2023-08-11T06:12:02.001Z,100656.19
2023-08-11T06:14:29.883Z,100657.03
2023-08-11T06:16:58.389Z,100660.31
2023-08-11T06:19:26.602Z,100663.02
2023-08-11T06:21:55.966Z,100664.30
2023-08-11T06:24:24.493Z,100665.77
2023-08-11T06:26:55.246Z,100667.49
2023-08-11T06:29:23.231Z,100667.04
2023-08-11T06:31:51.222Z,100669.69
2023-08-11T06:34:19.809Z,100671.73
2023-08-11T06:36:47.841Z,100673.44
2023-08-11T06:39:16.223Z,100674.69
2023-08-11T06:41:44.405Z,100676.84
2023-08-11T06:44:12.226Z,100679.23
2023-08-11T06:46:40.215Z,100681.13
2023-08-11T06:49:08.169Z,100683.65
2023-08-11T06:51:36.218Z,100686.66
2023-08-11T06:54:04.555Z,100685.52
2023-08-11T06:56:32.611Z,100685.23
2023-08-11T06:59:00.626Z,100686.23
2023-08-11T07:01:28.537Z,100690.55
2023-08-11T07:03:56.923Z,100694.95
2023-08-11T07:06:26.102Z,100696.11
2023-08-11T07:08:53.969Z,100697.45
2023-08-11T07:11:22.110Z,100702.35
2023-08-11T07:13:50.196Z,100705.83
2023-08-11T07:16:18.161Z,100704.92
2023-08-11T07:18:46.120Z,100703.89
2023-08-11T07:21:14.136Z,100704.23
2023-08-11T07:23:42.042Z,100703.08
2023-08-11T07:29:29.822Z,100710.20
2023-08-11T07:31:58.262Z,100713.66
2023-08-11T07:34:26.316Z,100711.58
2023-08-11T07:36:54.377Z,100715.80
2023-08-11T07:39:24.274Z,100719.19
2023-08-11T07:41:52.427Z,100717.94
2023-08-11T07:44:20.541Z,100716.67
2023-08-11T07:46:48.416Z,100714.17
2023-08-11T07:49:16.232Z,100716.09
2023-08-11T07:51:44.205Z,100714.95
2023-08-11T07:54:12.300Z,100709.29
2023-08-11T07:56:40.698Z,100706.50
2023-08-11T07:59:08.802Z,100708.87
2023-08-11T08:01:37.900Z,100711.01
2023-08-11T08:04:05.886Z,100709.48
2023-08-11T08:06:33.834Z,100707.65
2023-08-11T08:09:02.341Z,100708.19
2023-08-11T08:11:30.801Z,100705.89
2023-08-11T08:13:59.172Z,100705.65
2023-08-11T08:16:27.099Z,100703.73
2023-08-11T08:18:55.056Z,100700.23
2023-08-11T08:21:22.986Z,100700.74
2023-08-11T08:23:50.809Z,100700.41
2023-08-11T08:26:18.733Z,100701.41
2023-08-11T08:28:46.976Z,100698.09
2023-08-11T08:31:15.141Z,100698.31
2023-08-11T08:33:45.324Z,100695.52
2023-08-11T08:36:15.178Z,100698.02
2023-08-11T08:38:43.147Z,100698.98
2023-08-11T08:41:12.082Z,100698.62
2023-08-11T08:43:40.185Z,100701.85
2023-08-11T08:46:09.863Z,100701.61
2023-08-11T08:48:43.858Z,100702.63
2023-08-11T08:51:12.111Z,100700.71
2023-08-11T08:53:41.222Z,100705.55
2023-08-11T08:56:09.231Z,100704.13
2023-08-11T08:58:37.052Z,100701.02
2023-08-11T09:01:05.221Z,100694.65
2023-08-11T09:03:34.747Z,100693.46
2023-08-11T09:06:03.337Z,100693.42
2023-08-11T09:08:34.362Z,100693.33
2023-08-11T09:11:03.090Z,100693.86
2023-08-11T09:13:32.569Z,100692.63
2023-08-11T09:16:02.080Z,100693.51
2023-08-11T09:18:30.818Z,100690.17
2023-08-11T09:20:58.756Z,100689.07
2023-08-11T09:23:26.748Z,100692.11
2023-08-11T09:25:56.294Z,100692.81
2023-08-11T09:28:24.501Z,100693.23
2023-08-11T09:30:52.816Z,100691.52
2023-08-11T09:33:24.014Z,100689.13
2023-08-11T09:35:54.592Z,100687.27
2023-08-11T09:38:22.318Z,100692.39
2023-08-11T09:40:50.771Z,100688.92
2023-08-11T09:43:18.724Z,100685.21
2023-08-11T09:45:46.647Z,100687.12
2023-08-11T09:48:14.633Z,100687.29
2023-08-11T09:50:43.985Z,100686.91
2023-08-11T09:53:12.591Z,100687.02
2023-08-11T09:55:42.975Z,100685.48
2023-08-11T09:58:15.235Z,100688.77
2023-08-11T10:00:44.660Z,100690.71
2023-08-11T10:03:17.789Z,100690.70
2023-08-11T10:05:47.952Z,100689.39
2023-08-11T10:08:22.500Z,100687.29
2023-08-11T10:10:50.728Z,100688.89
2023-08-11T10:13:27.692Z,100685.91
2023-08-11T10:15:56.642Z,100686.27
2023-08-11T10:18:25.030Z,100687.50
2023-08-11T10:20:53.400Z,100687.00
2023-08-11T10:23:21.466Z,100686.11
2023-08-11T10:25:50.359Z,100690.73
2023-08-11T10:28:20.034Z,100688.96
2023-08-11T10:30:58.705Z,100686.95
2023-08-11T10:33:31.470Z,100686.48
2023-08-11T10:36:01.992Z,100682.92
2023-08-11T10:38:32.537Z,100678.92
2023-08-11T10:41:01.603Z,100678.89
2023-08-11T10:43:42.552Z,100677.84
2023-08-11T10:46:25.814Z,100678.71
2023-08-11T10:49:22.419Z,100677.23
2023-08-11T10:51:52.582Z,100671.30
2023-08-11T10:54:27.147Z,100671.43
2023-08-11T10:56:55.337Z,100670.96
2023-08-11T10:59:32.301Z,100669.17
2023-08-11T11:02:03.304Z,100667.83
2023-08-11T11:04:32.988Z,100664.65
2023-08-11T11:07:02.187Z,100664.98
2023-08-11T11:09:30.530Z,100667.05
2023-08-11T11:11:58.682Z,100665.93
2023-08-11T11:14:30.235Z,100666.16
2023-08-11T11:17:02.069Z,100669.73
2023-08-11T11:19:32.370Z,100665.56
2023-08-11T11:22:00.944Z,100663.48
2023-08-11T11:24:28.954Z,100661.16
2023-08-11T11:26:59.805Z,100664.24
2023-08-11T11:29:29.781Z,100666.09
2023-08-11T11:32:01.853Z,100662.85
2023-08-11T11:34:30.645Z,100660.99
2023-08-11T11:36:58.738Z,100659.27
2023-08-11T11:39:26.827Z,100653.18
2023-08-11T11:41:54.677Z,100653.08
2023-08-11T11:44:22.815Z,100650.98
2023-08-11T11:46:50.911Z,100650.42
2023-08-11T11:49:29.168Z,100646.96
2023-08-11T11:52:01.767Z,100649.37
2023-08-11T11:54:31.190Z,100647.67
2023-08-11T11:57:04.723Z,100647.39
2023-08-11T11:59:34.996Z,100644.96
2023-08-11T12:02:03.426Z,100647.34
2023-08-11T12:04:31.866Z,100643.45
2023-08-11T12:07:00.934Z,100643.56
2023-08-11T12:09:29.847Z,100645.70
2023-08-11T12:11:57.899Z,100645.50
2023-08-11T12:14:29.106Z,100639.59
2023-08-11T12:16:58.446Z,100638.35
2023-08-11T12:19:26.674Z,100641.43
2023-08-11T12:21:54.810Z,100641.13
2023-08-11T12:24:23.673Z,100640.31
2023-08-11T12:26:51.653Z,100639.98
2023-08-11T12:29:19.744Z,100641.25
2023-08-11T12:31:47.840Z,100640.05
2023-08-11T12:34:15.711Z,100641.80
2023-08-11T12:36:43.521Z,100644.48
2023-08-11T12:39:11.404Z,100645.27
2023-08-11T12:41:40.235Z,100642.86
2023-08-11T12:44:08.291Z,100646.39
2023-08-11T12:46:37.794Z,100646.99
2023-08-11T12:49:05.792Z,100647.48
2023-08-11T12:51:33.939Z,100642.55
2023-08-11T12:54:02.161Z,100638.62
2023-08-11T12:56:30.104Z,100640.86
2023-08-11T12:58:58.290Z,100638.73
2023-08-11T13:01:27.155Z,100635.36
2023-08-11T13:03:56.941Z,100639.66
2023-08-11T13:06:25.130Z,100642.86
2023-08-11T13:08:53.108Z,100639.16
2023-08-11T13:11:21.054Z,100643.41
2023-08-11T13:13:48.948Z,100633.50
2023-08-11T13:16:17.531Z,100635.55
2023-08-11T13:18:45.700Z,100636.77
2023-08-11T13:21:13.533Z,100635.77
2023-08-11T13:23:41.563Z,100631.57
2023-08-11T13:26:09.963Z,100629.92
2023-08-11T13:28:37.914Z,100632.04
2023-08-11T13:31:06.039Z,100633.74
2023-08-11T13:33:34.635Z,100635.67
2023-08-11T13:36:02.837Z,100634.23
2023-08-11T13:38:31.230Z,100633.89
2023-08-11T13:40:59.237Z,100633.39
2023-08-11T13:43:27.241Z,100632.86
2023-08-11T13:45:55.087Z,100633.21
2023-08-11T13:48:25.087Z,100626.12
2023-08-11T13:50:53.566Z,100623.72
2023-08-11T13:53:21.573Z,100620.30
2023-08-11T13:55:49.637Z,100625.10
2023-08-11T13:58:17.452Z,100625.95
2023-08-11T14:00:45.513Z,100630.10
2023-08-11T14:03:13.467Z,100629.14
2023-08-11T14:05:41.415Z,100629.77
2023-08-11T14:08:09.261Z,100626.64
2023-08-11T14:10:37.111Z,100628.49
2023-08-11T14:13:08.432Z,100627.78
2023-08-11T14:15:38.584Z,100625.70
2023-08-11T14:18:07.527Z,100629.05
2023-08-11T14:20:35.664Z,100626.82
2023-08-11T14:23:03.647Z,100630.44
2023-08-11T14:25:31.484Z,100635.40
2023-08-11T14:27:59.558Z,100636.50
2023-08-11T14:30:28.887Z,100633.56
2023-08-11T14:32:56.781Z,100635.98
2023-08-11T14:35:25.195Z,100631.06
2023-08-11T14:37:53.136Z,100626.05
2023-08-11T14:40:21.205Z,100630.86
2023-08-11T14:42:50.454Z,100631.89
2023-08-11T14:45:18.353Z,100632.52
2023-08-11T14:47:46.823Z,100630.05
2023-08-11T14:50:14.776Z,100631.20
2023-08-11T14:52:42.795Z,100631.03
2023-08-11T14:55:10.632Z,100631.28
2023-08-11T14:57:38.389Z,100637.95
2023-08-11T15:00:09.536Z,100635.31
2023-08-11T15:02:37.501Z,100629.86
2023-08-11T15:05:06.085Z,100627.09
2023-08-11T15:07:34.044Z,100627.86
2023-08-11T15:10:01.944Z,100630.64
2023-08-11T15:12:29.808Z,100627.83
2023-08-11T15:14:57.741Z,100628.46
2023-08-11T15:17:25.564Z,100625.55
2023-08-11T15:19:53.648Z,100626.36
2023-08-11T15:22:21.469Z,100627.00
2023-08-11T15:24:49.265Z,100629.67
2023-08-11T15:27:19.246Z,100630.16
2023-08-11T15:29:47.760Z,100631.45
2023-08-11T15:32:15.610Z,100632.86
2023-08-11T15:34:43.479Z,100630.83
2023-08-11T15:37:12.466Z,100629.89
2023-08-11T15:39:41.973Z,100631.94
2023-08-11T15:42:10.251Z,100631.08
2023-08-11T15:44:38.634Z,100629.55
2023-08-11T15:47:06.898Z,100630.59
2023-08-11T15:49:34.879Z,100631.55
2023-08-11T15:52:02.671Z,100629.78
2023-08-11T15:54:30.624Z,100629.25
2023-08-11T15:56:59.196Z,100635.56
2023-08-11T15:59:27.356Z,100636.81
2023-08-11T16:02:14.541Z,100635.68
2023-08-11T16:04:43.072Z,100635.39
2023-08-11T16:07:11.057Z,100636.24
2023-08-11T16:09:39.175Z,100639.08
2023-08-11T16:12:07.263Z,100643.74
2023-08-11T16:14:35.357Z,100642.46
2023-08-11T16:17:03.391Z,100646.19
2023-08-11T16:19:31.521Z,100649.81
2023-08-11T16:21:59.468Z,100647.93
2023-08-11T16:24:27.461Z,100649.34
2023-08-11T16:26:55.960Z,100646.79
2023-08-11T16:29:23.954Z,100650.27
2023-08-11T16:31:52.105Z,100645.91
2023-08-11T16:34:24.621Z,100647.25
2023-08-11T16:36:53.221Z,100649.91
2023-08-11T16:39:21.135Z,100653.10
2023-08-11T16:41:48.973Z,100652.64
2023-08-11T16:44:16.727Z,100653.45
2023-08-11T16:46:44.641Z,100651.70
2023-08-11T16:49:12.601Z,100649.21
2023-08-11T16:51:40.485Z,100651.67
2023-08-11T16:54:08.256Z,100654.96
2023-08-11T16:56:36.048Z,100656.27
2023-08-11T16:59:04.044Z,100655.16
2023-08-11T17:01:31.944Z,100654.70
2023-08-11T17:04:00.053Z,100656.87
2023-08-11T17:06:28.491Z,100658.54
2023-08-11T17:08:56.387Z,100658.31
2023-08-11T17:11:24.421Z,100660.18
2023-08-11T17:13:52.533Z,100664.84
2023-08-11T17:16:20.839Z,100666.45
2023-08-11T17:18:51.191Z,100668.89
2023-08-11T17:21:20.168Z,100674.20
2023-08-11T17:23:48.854Z,100670.77
2023-08-11T17:26:17.062Z,100679.13
2023-08-11T17:28:45.285Z,100679.66
2023-08-11T17:31:13.210Z,100681.56
2023-08-11T17:33:41.449Z,100684.58
2023-08-11T17:36:10.176Z,100688.64
2023-08-11T17:38:38.267Z,100690.94
2023-08-11T17:41:06.833Z,100688.25
2023-08-11T17:43:34.792Z,100688.84
2023-08-11T17:46:02.983Z,100691.28
2023-08-11T17:48:31.040Z,100692.27
2023-08-11T17:50:59.025Z,100695.77
2023-08-11T17:53:27.180Z,100701.42
2023-08-11T17:55:55.111Z,100706.23
2023-08-11T17:58:23.094Z,100705.77
2023-08-11T18:00:51.015Z,100705.96
2023-08-11T18:03:19.145Z,100708.85
2023-08-11T18:05:47.623Z,100713.91
2023-08-11T18:08:15.565Z,100713.64
2023-08-11T18:10:43.659Z,100715.98
2023-08-11T18:13:12.280Z,100720.81
2023-08-11T18:15:40.833Z,100722.40
2023-08-11T18:18:09.138Z,100722.91
2023-08-11T18:20:37.070Z,100725.03
2023-08-11T18:23:04.996Z,100726.00
2023-08-11T18:25:32.904Z,100727.48
2023-08-11T18:28:00.804Z,100729.36
2023-08-11T18:30:29.408Z,100729.48
2023-08-11T18:32:57.611Z,100731.82
2023-08-11T18:35:26.899Z,100736.81
2023-08-11T18:37:54.811Z,100740.57
2023-08-11T18:40:22.816Z,100743.40
2023-08-11T18:42:51.299Z,100747.11
2023-08-11T18:45:19.243Z,100748.36
2023-08-11T18:47:48.106Z,100749.57
2023-08-11T18:50:16.301Z,100750.44
2023-08-11T18:52:44.352Z,100750.50
2023-08-11T18:55:12.181Z,100752.02
2023-08-11T18:57:40.294Z,100749.30
2023-08-11T19:00:10.126Z,100748.39
2023-08-11T19:02:38.246Z,100750.08
2023-08-11T19:05:07.117Z,100750.15
2023-08-11T19:07:34.941Z,100749.89
2023-08-11T19:10:02.962Z,100749.29
2023-08-11T19:12:30.984Z,100751.48
2023-08-11T19:14:59.087Z,100752.17
2023-08-11T19:17:27.516Z,100752.63
2023-08-11T19:19:55.513Z,100752.14
2023-08-11T19:22:24.036Z,100750.73
2023-08-11T19:24:51.977Z,100749.17
2023-08-11T19:27:19.896Z,100747.14
2023-08-11T19:29:47.883Z,100747.63
2023-08-11T19:32:16.246Z,100746.21
2023-08-11T19:34:44.071Z,100748.29
2023-08-11T19:37:12.027Z,100748.02
2023-08-11T19:39:39.921Z,100748.86
2023-08-11T19:42:07.927Z,100748.80
2023-08-11T19:44:37.481Z,100748.90
2023-08-11T19:47:05.433Z,100752.20
2023-08-11T19:49:33.364Z,100753.77
2023-08-11T19:52:01.354Z,100751.45
2023-08-11T19:54:29.438Z,100749.60
2023-08-11T19:56:57.444Z,100753.26
2023-08-11T19:59:25.199Z,100753.92
2023-08-11T20:01:53.038Z,100755.91
2023-08-11T20:04:22.153Z,100753.79
2023-08-11T20:06:50.656Z,100755.69
2023-08-11T20:09:20.444Z,100755.57
2023-08-11T20:11:48.449Z,100757.38
2023-08-11T20:14:17.138Z,100757.25
2023-08-11T20:16:46.363Z,100762.83
2023-08-11T20:19:14.341Z,100762.30
2023-08-11T20:21:43.672Z,100761.17
2023-08-11T20:24:12.084Z,100759.05
2023-08-11T20:26:39.980Z,100762.06
2023-08-11T20:29:07.906Z,100764.59
2023-08-11T20:31:36.042Z,100768.50
2023-08-11T20:34:04.143Z,100768.55
2023-08-11T20:36:32.088Z,100767.83
2023-08-11T20:39:00.117Z,100769.17
2023-08-11T20:41:27.840Z,100772.48
2023-08-11T20:43:55.858Z,100776.72
2023-08-11T20:46:23.935Z,100776.94
2023-08-11T20:48:51.850Z,100778.71
2023-08-11T20:51:19.793Z,100780.24
2023-08-11T20:53:48.090Z,100777.83
2023-08-11T20:56:16.014Z,100778.08
2023-08-11T20:58:43.902Z,100776.42
2023-08-11T21:01:11.876Z,100776.63
2023-08-11T21:03:39.890Z,100774.31
2023-08-11T21:06:07.916Z,100775.98
2023-08-11T21:08:35.838Z,100772.89
2023-08-11T21:11:03.986Z,100776.16
2023-08-11T21:13:32.366Z,100778.73
2023-08-11T21:16:00.590Z,100778.53
2023-08-11T21:18:28.522Z,100777.13
2023-08-11T21:20:56.680Z,100776.48
2023-08-11T21:23:24.990Z,100778.23
2023-08-11T21:25:52.820Z,100776.33
2023-08-11T21:28:20.975Z,100778.12
2023-08-11T21:31:03.937Z,100778.84
2023-08-11T21:33:39.754Z,100776.98
2023-08-11T21:36:07.620Z,100778.72
2023-08-11T21:38:35.458Z,100779.83
2023-08-11T21:41:03.556Z,100780.97
2023-08-11T21:43:31.561Z,100779.54
2023-08-11T21:45:59.414Z,100783.32
2023-08-11T21:48:27.331Z,100783.27
2023-08-11T21:50:56.661Z,100781.72
2023-08-11T21:53:24.581Z,100784.52
2023-08-11T21:55:52.541Z,100779.48
2023-08-11T21:58:21.467Z,100778.89
2023-08-11T22:00:50.327Z,100780.34
2023-08-11T22:03:18.549Z,100778.98
2023-08-11T22:05:46.775Z,100780.39
2023-08-11T22:08:14.678Z,100780.95
2023-08-11T22:10:45.801Z,100780.95
2023-08-11T22:13:14.261Z,100779.23
2023-08-11T22:15:42.228Z,100776.59
2023-08-11T22:18:10.601Z,100779.02
2023-08-11T22:20:38.632Z,100778.98
2023-08-11T22:23:06.581Z,100776.39
2023-08-11T22:25:35.301Z,100775.64
2023-08-11T22:28:03.410Z,100776.20
2023-08-11T22:30:31.379Z,100778.76
2023-08-11T22:32:59.440Z,100776.58
2023-08-11T22:35:27.790Z,100777.09
2023-08-11T22:37:56.282Z,100774.40
2023-08-11T22:40:24.367Z,100770.89
2023-08-11T22:42:52.224Z,100772.38
2023-08-11T22:45:21.751Z,100769.75
2023-08-11T22:47:50.923Z,100772.98
2023-08-11T22:50:18.889Z,100775.60
2023-08-11T22:52:46.791Z,100777.59
2023-08-11T22:55:15.359Z,100777.45
2023-08-11T22:57:43.697Z,100776.85
2023-08-11T23:00:13.763Z,100778.52
2023-08-11T23:02:41.842Z,100781.84
2023-08-11T23:05:10.581Z,100783.31
2023-08-11T23:07:40.400Z,100783.02
2023-08-11T23:10:08.762Z,100783.08
2023-08-11T23:12:36.604Z,100781.65
2023-08-11T23:15:06.387Z,100783.54
2023-08-11T23:17:34.506Z,100782.25
2023-08-11T23:20:02.453Z,100782.48
2023-08-11T23:22:30.571Z,100781.65
2023-08-11T23:24:59.576Z,100784.50
2023-08-11T23:27:31.658Z,100781.38
2023-08-11T23:30:01.322Z,100780.98
2023-08-11T23:32:30.688Z,100782.73
2023-08-11T23:35:02.364Z,100786.93
2023-08-11T23:37:30.367Z,100785.31
2023-08-11T23:39:59.014Z,100782.30
2023-08-11T23:42:28.430Z,100785.95
2023-08-11T23:44:56.435Z,100786.23
2023-08-11T23:47:24.542Z,100785.73
2023-08-11T23:49:52.723Z,100785.70
2023-08-11T23:52:20.684Z,100786.70
2023-08-11T23:54:54.789Z,100786.65
2023-08-11T23:57:23.265Z,100784.96
2023-08-11T23:59:51.139Z,100784.36
